createdAt,value
2019-05-26T08:49:24.607Z,59.50
2019-05-26T08:51:53.412Z,59.10
2019-05-26T08:54:22.487Z,58.40
2019-05-26T08:56:51.127Z,56.50
2019-05-26T08:59:19.600Z,56.60
2019-05-26T09:01:48.176Z,56.70
2019-05-26T09:04:16.627Z,57.50
2019-05-26T09:06:45.091Z,58.10
2019-05-26T09:09:13.569Z,58.40
2019-05-26T09:11:42.155Z,58.90
2019-05-26T09:14:10.663Z,59.90
2019-05-26T09:16:39.217Z,61.30
2019-05-26T09:19:07.722Z,62.60
2019-05-26T09:21:36.257Z,63.40
2019-05-26T09:24:04.863Z,63.70
2019-05-26T09:26:33.471Z,65.50
2019-05-26T09:29:02.601Z,65.40
2019-05-26T09:31:34.004Z,65.60
2019-05-26T09:34:01.332Z,65.50
2019-05-26T09:36:29.787Z,65.60
2019-05-26T09:38:58.271Z,65.10
2019-05-26T09:41:26.813Z,65.30
2019-05-26T09:43:55.496Z,66.40
2019-05-26T09:46:24.019Z,67.10
2019-05-26T09:48:52.487Z,67.30
2019-05-26T09:51:20.926Z,67.50
2019-05-26T09:54:01.248Z,68.20
2019-05-26T09:56:19.598Z,68.80
2019-05-26T09:58:48.143Z,69.30
2019-05-26T10:01:16.622Z,69.60
2019-05-26T10:03:45.239Z,71.20
2019-05-26T10:06:13.856Z,72.80
2019-05-26T10:08:42.353Z,74.00
2019-05-26T10:11:10.813Z,75.80
2019-05-26T10:13:39.327Z,76.90
2019-05-26T10:16:07.861Z,78.00
2019-05-26T10:18:36.345Z,78.90
2019-05-26T10:21:04.884Z,79.40
2019-05-26T10:23:33.496Z,80.60
2019-05-26T10:26:01.957Z,80.80
2019-05-26T10:28:30.441Z,81.60
2019-05-26T10:30:58.983Z,82.20
2019-05-26T10:33:27.461Z,82.80
2019-05-26T10:35:55.919Z,82.80
2019-05-26T10:38:24.437Z,83.00
2019-05-26T10:40:52.904Z,84.20
2019-05-26T10:43:21.349Z,83.90
2019-05-26T10:45:49.801Z,84.50
2019-05-26T10:48:18.283Z,84.60
2019-05-26T10:50:46.823Z,84.50
2019-05-26T10:53:15.353Z,83.30
2019-05-26T10:55:43.999Z,83.70
2019-05-26T10:58:15.431Z,83.90
2019-05-26T11:00:45.286Z,83.50
2019-05-26T11:03:13.808Z,84.00
2019-05-26T11:05:42.432Z,83.50
2019-05-26T11:08:10.988Z,83.80
2019-05-26T11:10:39.606Z,83.80
2019-05-26T11:13:08.255Z,84.90
2019-05-26T11:15:36.820Z,85.10
2019-05-26T11:18:05.540Z,85.70
2019-05-26T11:20:34.141Z,85.80
2019-05-26T11:23:02.602Z,86.10
2019-05-26T11:25:31.063Z,85.60
2019-05-26T11:27:59.831Z,85.70
2019-05-26T11:30:28.665Z,85.40
2019-05-26T11:32:59.591Z,84.20
2019-05-26T11:35:27.409Z,82.50
2019-05-26T11:37:55.890Z,80.90
2019-05-26T11:40:24.559Z,80.80
2019-05-26T11:42:53.033Z,80.40
2019-05-26T11:45:21.683Z,79.20
2019-05-26T11:47:50.209Z,80.20
2019-05-26T11:50:19.123Z,81.30
2019-05-26T11:52:47.619Z,81.90
2019-05-26T11:55:16.490Z,81.00
2019-05-26T11:57:45.075Z,82.40
2019-05-26T12:00:16.426Z,82.40
2019-05-26T12:02:46.040Z,83.50
2019-05-26T12:05:18.952Z,84.00
2019-05-26T12:07:47.603Z,84.20
2019-05-26T12:10:16.367Z,83.60
2019-05-26T12:12:44.934Z,84.60
2019-05-26T12:15:15.335Z,85.20
2019-05-26T12:17:43.792Z,85.80
2019-05-26T12:20:12.440Z,85.20
2019-05-26T12:22:40.978Z,84.70
2019-05-26T12:25:10.674Z,84.60
2019-05-26T12:27:39.276Z,84.90
2019-05-26T12:30:09.247Z,83.60
2019-05-26T12:32:37.765Z,83.60
2019-05-26T12:35:09.938Z,82.90
2019-05-26T12:37:39.998Z,83.40
2019-05-26T12:40:09.522Z,84.00
2019-05-26T12:42:38.061Z,85.40
2019-05-26T12:45:10.112Z,85.70
2019-05-26T12:47:39.081Z,87.20
2019-05-26T12:50:08.601Z,88.20
2019-05-26T12:52:37.284Z,88.50
2019-05-26T12:55:09.211Z,89.00
2019-05-26T12:57:36.923Z,89.00
2019-05-26T13:00:09.580Z,89.60
2019-05-26T13:02:38.370Z,90.10
2019-05-26T13:05:08.479Z,90.30
2019-05-26T13:07:37.102Z,90.50
2019-05-26T13:10:10.233Z,90.30
2019-05-26T13:12:38.735Z,90.60
2019-05-26T13:15:08.936Z,90.80
2019-05-26T13:17:37.422Z,90.90
2019-05-26T13:20:09.816Z,91.00
2019-05-26T13:22:39.492Z,91.00
2019-05-26T13:25:09.544Z,90.80
2019-05-26T13:27:38.177Z,90.90
2019-05-26T13:30:12.175Z,90.90
2019-05-26T13:32:40.637Z,91.30
2019-05-26T13:35:09.428Z,90.90
2019-05-26T13:37:37.978Z,90.80
2019-05-26T13:40:08.253Z,90.50
2019-05-26T13:42:37.338Z,90.20
2019-05-26T13:45:21.091Z,90.20
2019-05-26T13:47:38.822Z,89.30
2019-05-26T13:50:08.122Z,89.00
2019-05-26T13:52:36.711Z,89.20
2019-05-26T13:55:09.971Z,88.40
2019-05-26T13:57:38.444Z,87.30
2019-05-26T14:00:09.239Z,85.90
2019-05-26T14:02:38.070Z,85.10
2019-05-26T14:05:08.472Z,86.00
2019-05-26T14:07:37.153Z,86.20
2019-05-26T14:10:06.633Z,85.00
2019-05-26T14:12:35.202Z,84.70
2019-05-26T14:15:06.996Z,83.90
2019-05-26T14:17:35.887Z,82.90
2019-05-26T14:20:10.035Z,83.70
2019-05-26T14:22:38.611Z,83.00
2019-05-26T14:25:08.508Z,82.60
2019-05-26T14:27:37.051Z,82.50
2019-05-26T14:30:06.820Z,83.20
2019-05-26T14:32:35.331Z,84.50
2019-05-26T14:35:05.138Z,84.80
2019-05-26T14:37:34.321Z,85.30
2019-05-26T14:40:03.143Z,85.90
2019-05-26T14:42:31.662Z,85.80
2019-05-26T14:45:03.655Z,85.90
2019-05-26T14:47:30.346Z,84.60
2019-05-26T14:49:58.991Z,83.80
2019-05-26T14:52:27.455Z,83.00
2019-05-26T14:54:55.910Z,82.10
2019-05-26T14:57:24.514Z,81.70
2019-05-26T14:59:53.186Z,82.10
2019-05-26T15:02:21.694Z,82.30
2019-05-26T15:04:50.209Z,83.00
2019-05-26T15:07:18.757Z,84.20
2019-05-26T15:09:47.339Z,84.50
2019-05-26T15:12:15.882Z,85.10
2019-05-26T15:14:44.378Z,85.30
2019-05-26T15:17:14.430Z,85.90
2019-05-26T15:19:42.886Z,86.20
2019-05-26T15:22:11.545Z,86.10
2019-05-26T15:24:40.005Z,86.20
2019-05-26T15:27:08.472Z,86.50
2019-05-26T15:29:37.087Z,86.20
2019-05-26T15:32:05.640Z,86.30
2019-05-26T15:34:34.088Z,85.30
2019-05-26T15:37:02.586Z,85.90
2019-05-26T15:39:31.032Z,85.90
2019-05-26T15:41:59.609Z,86.00
2019-05-26T15:44:28.130Z,86.10
2019-05-26T15:46:56.735Z,86.00
2019-05-26T15:49:25.263Z,86.40
2019-05-26T15:51:53.803Z,86.40
2019-05-26T15:54:22.336Z,85.70
2019-05-26T15:56:50.798Z,85.40
2019-05-26T15:59:19.362Z,84.80
2019-05-26T16:01:47.830Z,84.80
2019-05-26T16:04:16.379Z,84.70
2019-05-26T16:06:45.125Z,83.80
2019-05-26T16:09:13.663Z,82.80
2019-05-26T16:11:43.695Z,82.60
2019-05-26T16:14:12.322Z,82.80
2019-05-26T16:16:41.964Z,81.30
2019-05-26T16:19:10.803Z,81.60
2019-05-26T16:21:40.247Z,81.00
2019-05-26T16:24:08.720Z,80.70
2019-05-26T16:26:37.249Z,80.60
2019-05-26T16:29:05.857Z,80.70
2019-05-26T16:31:37.610Z,80.50
2019-05-26T16:34:06.155Z,80.70
2019-05-26T16:36:34.736Z,80.50
2019-05-26T16:39:03.760Z,80.50
2019-05-26T16:41:32.252Z,80.60
2019-05-26T16:44:00.750Z,79.80
2019-05-26T16:46:29.281Z,80.30
2019-05-26T16:49:02.690Z,79.40
2019-05-26T16:51:31.214Z,78.70
2019-05-26T16:53:59.917Z,78.10
2019-05-26T16:56:29.459Z,76.30
2019-05-26T16:58:57.913Z,76.50
2019-05-26T17:01:26.372Z,76.20
2019-05-26T17:03:54.850Z,75.40
2019-05-26T17:06:23.298Z,75.70
2019-05-26T17:08:51.937Z,75.50
2019-05-26T17:11:20.458Z,75.10
2019-05-26T17:13:49.632Z,74.00
2019-05-26T17:16:18.306Z,73.80
2019-05-26T17:18:46.821Z,73.50
2019-05-26T17:21:15.508Z,73.20
2019-05-26T17:23:44.029Z,73.00
2019-05-26T17:26:12.554Z,73.40
2019-05-26T17:28:41.028Z,73.40
2019-05-26T17:31:09.562Z,73.00
2019-05-26T17:33:38.017Z,73.20
2019-05-26T17:36:06.543Z,73.60
2019-05-26T17:38:34.997Z,74.30
2019-05-26T17:41:03.578Z,75.30
2019-05-26T17:43:32.055Z,76.30
2019-05-26T17:46:00.690Z,76.90
2019-05-26T17:48:29.198Z,77.50
2019-05-26T17:50:57.741Z,78.40
2019-05-26T17:53:29.234Z,78.80
2019-05-26T17:56:00.816Z,81.10
2019-05-26T17:58:35.131Z,83.10
2019-05-26T18:01:03.901Z,85.70
2019-05-26T23:01:45.629Z,97.70
2019-05-26T23:04:14.102Z,98.10
2019-05-26T23:06:42.559Z,98.10
2019-05-26T23:09:12.323Z,97.90
2019-05-26T23:11:40.758Z,97.80
2019-05-26T23:14:09.226Z,97.70
2019-05-26T23:16:37.685Z,97.60
2019-05-26T23:19:18.747Z,97.50
2019-05-26T23:21:36.372Z,97.40
2019-05-26T23:24:04.953Z,97.50
2019-05-26T23:26:33.515Z,97.60
2019-05-26T23:29:02.043Z,97.50
2019-05-26T23:31:30.502Z,97.40
2019-05-26T23:33:58.981Z,97.40
2019-05-26T23:36:27.492Z,97.50
2019-05-26T23:38:55.966Z,97.40
2019-05-26T23:41:24.416Z,97.50
2019-05-26T23:43:52.950Z,97.60
2019-05-26T23:46:21.380Z,97.70
2019-05-26T23:48:49.851Z,97.50
2019-05-26T23:51:18.380Z,97.50
2019-05-26T23:53:46.845Z,97.50
2019-05-26T23:56:15.384Z,97.60
2019-05-26T23:58:43.887Z,97.60
